Terminal Aerodrome Forecast
Issued by NWS Charleston, SC

Home | Current Version | Previous Version | Text Only | Print | Product List | Glossary On
Versions: 1 2 3 4 5 6 7 8 9 10 11 12 13 14 15 16 17 18 19 20 21 22 23 24 25 26 27
000
FTUS42 KCHS 212104 AAA
TAFCHS
TAF AMD
KCHS 212104Z 2121/2218 17011KT P6SM BKN035
     FM220800 VRB02KT 3SM BR SCT003 BKN015
     FM221400 18005KT P6SM SCT015 BKN030
     FM221700 17008KT P6SM BKN035=

USA.gov is the U.S. government's official web portal to all federal, state and local government web resources and services.